sensor_id;sensor_type;location;lat;lon;timestamp;pressure;altitude;pressure_sealevel;temperature;humidity
48563;BME280;34981;49.104;11.396;2024-01-15T00:00:35;96022.75;;;-5.74;100.00
48563;BME280;34981;49.104;11.396;2024-01-15T00:03:03;96024.69;;;-5.76;100.00
48563;BME280;34981;49.104;11.396;2024-01-15T00:05:30;96022.91;;;-5.76;100.00
48563;BME280;34981;49.104;11.396;2024-01-15T00:07:57;96028.78;;;-5.74;100.00
48563;BME280;34981;49.104;11.396;2024-01-15T00:10:25;96023.56;;;-5.74;100.00
48563;BME280;34981;49.104;11.396;2024-01-15T00:12:52;96029.94;;;-5.76;100.00
48563;BME280;34981;49.104;11.396;2024-01-15T00:15:19;96034.03;;;-5.74;100.00
48563;BME280;34981;49.104;11.396;2024-01-15T00:17:46;96040.09;;;-5.73;100.00
48563;BME280;34981;49.104;11.396;2024-01-15T00:20:13;96031.41;;;-5.74;100.00
48563;BME280;34981;49.104;11.396;2024-01-15T00:22:40;96026.19;;;-5.74;100.00
48563;BME280;34981;49.104;11.396;2024-01-15T00:25:08;96038.13;;;-5.71;100.00
48563;BME280;34981;49.104;11.396;2024-01-15T00:27:35;96032.72;;;-5.70;100.00
48563;BME280;34981;49.104;11.396;2024-01-15T00:30:02;96025.19;;;-5.73;100.00
48563;BME280;34981;49.104;11.396;2024-01-15T00:32:30;96042.53;;;-5.72;100.00
48563;BME280;34981;49.104;11.396;2024-01-15T00:34:57;96029.94;;;-5.76;100.00
48563;BME280;34981;49.104;11.396;2024-01-15T00:37:24;96027.16;;;-5.75;100.00
48563;BME280;34981;49.104;11.396;2024-01-15T00:39:51;96021.91;;;-5.75;100.00
48563;BME280;34981;49.104;11.396;2024-01-15T00:42:19;96020.28;;;-5.76;100.00
48563;BME280;34981;49.104;11.396;2024-01-15T00:44:46;96013.91;;;-5.73;100.00
48563;BME280;34981;49.104;11.396;2024-01-15T00:47:13;96030.94;;;-5.77;100.00
48563;BME280;34981;49.104;11.396;2024-01-15T00:49:41;96020.63;;;-5.79;100.00
48563;BME280;34981;49.104;11.396;2024-01-15T00:52:08;96009.19;;;-5.78;100.00
48563;BME280;34981;49.104;11.396;2024-01-15T00:54:35;96006.38;;;-5.76;100.00
48563;BME280;34981;49.104;11.396;2024-01-15T00:57:03;96006.56;;;-5.78;100.00
48563;BME280;34981;49.104;11.396;2024-01-15T00:59:30;96005.75;;;-5.78;100.00
48563;BME280;34981;49.104;11.396;2024-01-15T01:01:57;96011.81;;;-5.78;100.00
48563;BME280;34981;49.104;11.396;2024-01-15T01:04:24;96009.81;;;-5.76;100.00
48563;BME280;34981;49.104;11.396;2024-01-15T01:06:52;96003.94;;;-5.78;100.00
48563;BME280;34981;49.104;11.396;2024-01-15T01:09:19;96006.22;;;-5.75;100.00
48563;BME280;34981;49.104;11.396;2024-01-15T01:11:46;96000.81;;;-5.73;100.00
48563;BME280;34981;49.104;11.396;2024-01-15T01:14:14;95995.06;;;-5.69;100.00
48563;BME280;34981;49.104;11.396;2024-01-15T01:16:41;96002.09;;;-5.69;100.00
48563;BME280;34981;49.104;11.396;2024-01-15T01:19:08;96008.34;;;-5.70;100.00
48563;BME280;34981;49.104;11.396;2024-01-15T01:21:36;96016.00;;;-5.69;100.00
48563;BME280;34981;49.104;11.396;2024-01-15T01:24:03;95995.41;;;-5.72;100.00
48563;BME280;34981;49.104;11.396;2024-01-15T01:26:30;96004.88;;;-5.63;100.00
48563;BME280;34981;49.104;11.396;2024-01-15T01:28:58;96005.69;;;-5.62;100.00
48563;BME280;34981;49.104;11.396;2024-01-15T01:31:26;96005.22;;;-5.66;100.00
48563;BME280;34981;49.104;11.396;2024-01-15T01:33:53;96005.69;;;-5.62;100.00
48563;BME280;34981;49.104;11.396;2024-01-15T01:36:20;96005.34;;;-5.59;100.00
48563;BME280;34981;49.104;11.396;2024-01-15T01:38:47;96007.44;;;-5.55;100.00
48563;BME280;34981;49.104;11.396;2024-01-15T01:41:14;96004.84;;;-5.55;100.00
48563;BME280;34981;49.104;11.396;2024-01-15T01:43:43;96000.09;;;-5.51;100.00
48563;BME280;34981;49.104;11.396;2024-01-15T01:46:10;95984.53;;;-5.53;100.00
48563;BME280;34981;49.104;11.396;2024-01-15T01:48:37;96000.56;;;-5.47;100.00
48563;BME280;34981;49.104;11.396;2024-01-15T01:51:05;96012.03;;;-5.48;100.00
48563;BME280;34981;49.104;11.396;2024-01-15T01:53:32;96022.16;;;-5.45;100.00
48563;BME280;34981;49.104;11.396;2024-01-15T01:56:00;96041.16;;;-5.43;100.00
48563;BME280;34981;49.104;11.396;2024-01-15T01:58:31;96037.88;;;-5.45;100.00
48563;BME280;34981;49.104;11.396;2024-01-15T02:01:01;96036.91;;;-5.44;100.00
48563;BME280;34981;49.104;11.396;2024-01-15T02:03:29;96042.78;;;-5.42;100.00
48563;BME280;34981;49.104;11.396;2024-01-15T02:05:57;96046.84;;;-5.40;100.00
48563;BME280;34981;49.104;11.396;2024-01-15T02:08:26;96038.19;;;-5.40;100.00
48563;BME280;34981;49.104;11.396;2024-01-15T02:10:53;96033.75;;;-5.40;100.00
48563;BME280;34981;49.104;11.396;2024-01-15T02:13:20;96048.34;;;-5.37;100.00
48563;BME280;34981;49.104;11.396;2024-01-15T02:15:47;96035.22;;;-5.37;100.00
48563;BME280;34981;49.104;11.396;2024-01-15T02:18:15;96035.91;;;-5.35;100.00
48563;BME280;34981;49.104;11.396;2024-01-15T02:20:42;96059.13;;;-5.32;100.00
48563;BME280;34981;49.104;11.396;2024-01-15T02:23:12;96053.88;;;-5.32;100.00
48563;BME280;34981;49.104;11.396;2024-01-15T02:25:40;96057.97;;;-5.30;100.00
48563;BME280;34981;49.104;11.396;2024-01-15T02:28:08;96062.69;;;-5.25;100.00
48563;BME280;34981;49.104;11.396;2024-01-15T02:30:40;96064.50;;;-5.26;100.00
48563;BME280;34981;49.104;11.396;2024-01-15T02:33:08;96065.31;;;-5.25;100.00
48563;BME280;34981;49.104;11.396;2024-01-15T02:35:36;96069.41;;;-5.23;100.00
48563;BME280;34981;49.104;11.396;2024-01-15T02:38:06;96071.88;;;-5.21;100.00
48563;BME280;34981;49.104;11.396;2024-01-15T02:40:33;96064.66;;;-5.19;100.00
48563;BME280;34981;49.104;11.396;2024-01-15T02:43:01;96072.53;;;-5.19;100.00
48563;BME280;34981;49.104;11.396;2024-01-15T02:45:28;96080.03;;;-5.16;100.00
48563;BME280;34981;49.104;11.396;2024-01-15T02:47:56;96078.06;;;-5.14;100.00
48563;BME280;34981;49.104;11.396;2024-01-15T02:50:23;96069.22;;;-5.13;100.00
48563;BME280;34981;49.104;11.396;2024-01-15T02:52:50;96074.47;;;-5.13;100.00
48563;BME280;34981;49.104;11.396;2024-01-15T02:58:28;96080.97;;;-5.09;100.00
48563;BME280;34981;49.104;11.396;2024-01-15T03:00:55;96103.25;;;-5.05;100.00
48563;BME280;34981;49.104;11.396;2024-01-15T03:03:22;96105.88;;;-5.05;100.00
48563;BME280;34981;49.104;11.396;2024-01-15T03:05:50;96107.31;;;-5.02;100.00
48563;BME280;34981;49.104;11.396;2024-01-15T03:08:17;96095.03;;;-5.02;100.00
48563;BME280;34981;49.104;11.396;2024-01-15T03:10:44;96100.94;;;-5.00;100.00
48563;BME280;34981;49.104;11.396;2024-01-15T03:13:11;96092.09;;;-4.99;100.00
48563;BME280;34981;49.104;11.396;2024-01-15T03:15:39;96105.84;;;-4.97;100.00
48563;BME280;34981;49.104;11.396;2024-01-15T03:18:06;96100.63;;;-4.97;100.00
48563;BME280;34981;49.104;11.396;2024-01-15T03:20:33;96095.84;;;-4.93;100.00
48563;BME280;34981;49.104;11.396;2024-01-15T03:23:01;96103.19;;;-4.89;100.00
48563;BME280;34981;49.104;11.396;2024-01-15T03:25:28;96092.53;;;-4.87;100.00
48563;BME280;34981;49.104;11.396;2024-01-15T03:27:55;96095.63;;;-4.84;100.00
48563;BME280;34981;49.104;11.396;2024-01-15T03:30:22;96094.00;;;-4.85;100.00
48563;BME280;34981;49.104;11.396;2024-01-15T03:32:50;96103.34;;;-4.82;100.00
48563;BME280;34981;49.104;11.396;2024-01-15T03:35:17;96104.94;;;-4.81;100.00
48563;BME280;34981;49.104;11.396;2024-01-15T03:37:44;96109.03;;;-4.79;100.00
48563;BME280;34981;49.104;11.396;2024-01-15T03:40:11;96104.78;;;-4.80;100.00
48563;BME280;34981;49.104;11.396;2024-01-15T03:42:39;96097.72;;;-4.79;100.00
48563;BME280;34981;49.104;11.396;2024-01-15T03:45:07;96106.09;;;-4.76;100.00
48563;BME280;34981;49.104;11.396;2024-01-15T03:47:34;96105.06;;;-4.75;100.00
48563;BME280;34981;49.104;11.396;2024-01-15T03:50:01;96098.69;;;-4.72;100.00
48563;BME280;34981;49.104;11.396;2024-01-15T03:52:28;96110.81;;;-4.71;100.00
48563;BME280;34981;49.104;11.396;2024-01-15T03:54:56;96098.34;;;-4.69;100.00
48563;BME280;34981;49.104;11.396;2024-01-15T03:57:23;96100.00;;;-4.68;100.00
48563;BME280;34981;49.104;11.396;2024-01-15T03:59:50;96109.31;;;-4.65;100.00
48563;BME280;34981;49.104;11.396;2024-01-15T04:02:18;96100.44;;;-4.64;100.00
48563;BME280;34981;49.104;11.396;2024-01-15T04:04:45;96107.34;;;-4.63;100.00
48563;BME280;34981;49.104;11.396;2024-01-15T04:07:12;96115.84;;;-4.61;100.00
48563;BME280;34981;49.104;11.396;2024-01-15T04:09:39;96113.84;;;-4.59;100.00
48563;BME280;34981;49.104;11.396;2024-01-15T04:12:07;96115.50;;;-4.58;100.00
48563;BME280;34981;49.104;11.396;2024-01-15T04:14:34;96109.25;;;-4.57;100.00
48563;BME280;34981;49.104;11.396;2024-01-15T04:17:01;96110.91;;;-4.56;100.00
48563;BME280;34981;49.104;11.396;2024-01-15T04:19:28;96115.16;;;-4.55;100.00
48563;BME280;34981;49.104;11.396;2024-01-15T04:21:56;96120.06;;;-4.52;100.00
48563;BME280;34981;49.104;11.396;2024-01-15T04:24:23;96116.59;;;-4.53;100.00
48563;BME280;34981;49.104;11.396;2024-01-15T04:26:50;96120.06;;;-4.52;100.00
48563;BME280;34981;49.104;11.396;2024-01-15T04:29:18;96118.06;;;-4.50;100.00
48563;BME280;34981;49.104;11.396;2024-01-15T04:31:45;96133.13;;;-4.44;100.00
48563;BME280;34981;49.104;11.396;2024-01-15T04:34:12;96135.28;;;-4.48;100.00
48563;BME280;34981;49.104;11.396;2024-01-15T04:36:39;96128.06;;;-4.46;100.00
48563;BME280;34981;49.104;11.396;2024-01-15T04:39:07;96117.75;;;-4.47;100.00
48563;BME280;34981;49.104;11.396;2024-01-15T04:41:34;96118.56;;;-4.47;100.00
48563;BME280;34981;49.104;11.396;2024-01-15T04:44:02;96125.44;;;-4.46;100.00
48563;BME280;34981;49.104;11.396;2024-01-15T04:46:29;96114.97;;;-4.46;100.00
48563;BME280;34981;49.104;11.396;2024-01-15T04:48:56;96119.03;;;-4.43;100.00
48563;BME280;34981;49.104;11.396;2024-01-15T04:51:23;96114.44;;;-4.41;100.00
48563;BME280;34981;49.104;11.396;2024-01-15T04:53:50;96113.59;;;-4.42;100.00
48563;BME280;34981;49.104;11.396;2024-01-15T04:56:17;96112.78;;;-4.42;100.00
48563;BME280;34981;49.104;11.396;2024-01-15T04:58:45;96123.94;;;-4.40;100.00
48563;BME280;34981;49.104;11.396;2024-01-15T05:01:12;96120.94;;;-4.37;100.00
48563;BME280;34981;49.104;11.396;2024-01-15T05:03:39;96121.16;;;-4.39;100.00
48563;BME280;34981;49.104;11.396;2024-01-15T05:06:07;96127.84;;;-4.36;100.00
48563;BME280;34981;49.104;11.396;2024-01-15T05:08:34;96118.00;;;-4.34;100.00
48563;BME280;34981;49.104;11.396;2024-01-15T05:11:01;96121.06;;;-4.31;100.00
48563;BME280;34981;49.104;11.396;2024-01-15T05:13:29;96135.94;;;-4.23;100.00
48563;BME280;34981;49.104;11.396;2024-01-15T05:15:56;96128.72;;;-4.21;100.00
48563;BME280;34981;49.104;11.396;2024-01-15T05:18:23;96131.34;;;-4.21;100.00
48563;BME280;34981;49.104;11.396;2024-01-15T05:20:50;96132.50;;;-4.23;100.00
48563;BME280;34981;49.104;11.396;2024-01-15T05:23:19;96132.34;;;-4.22;100.00
48563;BME280;34981;49.104;11.396;2024-01-15T05:25:47;96129.00;;;-4.16;100.00
48563;BME280;34981;49.104;11.396;2024-01-15T05:28:14;96121.97;;;-4.15;100.00
48563;BME280;34981;49.104;11.396;2024-01-15T05:30:41;96129.00;;;-4.16;100.00
48563;BME280;34981;49.104;11.396;2024-01-15T05:33:08;96128.69;;;-4.13;100.00
48563;BME280;34981;49.104;11.396;2024-01-15T05:35:36;96147.06;;;-4.13;100.00
48563;BME280;34981;49.104;11.396;2024-01-15T05:38:03;96150.66;;;-4.14;100.00
48563;BME280;34981;49.104;11.396;2024-01-15T05:40:30;96138.53;;;-4.15;100.00
48563;BME280;34981;49.104;11.396;2024-01-15T05:42:57;96144.75;;;-4.16;100.00
48563;BME280;34981;49.104;11.396;2024-01-15T05:45:29;96142.13;;;-4.16;100.00
48563;BME280;34981;49.104;11.396;2024-01-15T05:47:56;96154.75;;;-4.11;100.00
48563;BME280;34981;49.104;11.396;2024-01-15T05:50:23;96150.16;;;-4.09;100.00
48563;BME280;34981;49.104;11.396;2024-01-15T05:52:50;96156.69;;;-4.05;100.00
48563;BME280;34981;49.104;11.396;2024-01-15T05:55:18;96150.63;;;-4.06;100.00
48563;BME280;34981;49.104;11.396;2024-01-15T05:57:45;96161.06;;;-3.98;100.00
48563;BME280;34981;49.104;11.396;2024-01-15T06:00:13;96162.88;;;-3.98;100.00
48563;BME280;34981;49.104;11.396;2024-01-15T06:02:40;96163.03;;;-4.00;100.00
48563;BME280;34981;49.104;11.396;2024-01-15T06:05:07;96158.63;;;-3.99;100.00
48563;BME280;34981;49.104;11.396;2024-01-15T06:07:34;96169.13;;;-3.99;100.00
48563;BME280;34981;49.104;11.396;2024-01-15T06:10:02;96162.22;;;-4.00;100.00
48563;BME280;34981;49.104;11.396;2024-01-15T06:12:30;96166.97;;;-3.96;100.00
48563;BME280;34981;49.104;11.396;2024-01-15T06:14:58;96158.44;;;-3.98;100.00
48563;BME280;34981;49.104;11.396;2024-01-15T06:17:25;96148.09;;;-3.99;100.00
48563;BME280;34981;49.104;11.396;2024-01-15T06:19:52;96149.91;;;-4.00;100.00
48563;BME280;34981;49.104;11.396;2024-01-15T06:22:19;96154.66;;;-3.95;100.00
48563;BME280;34981;49.104;11.396;2024-01-15T06:24:46;96155.47;;;-3.95;100.00
48563;BME280;34981;49.104;11.396;2024-01-15T06:27:14;96145.78;;;-3.94;100.00
48563;BME280;34981;49.104;11.396;2024-01-15T06:29:44;96151.34;;;-3.89;100.00
48563;BME280;34981;49.104;11.396;2024-01-15T06:32:16;96144.28;;;-3.88;100.00
48563;BME280;34981;49.104;11.396;2024-01-15T06:34:43;96145.09;;;-3.88;100.00
48563;BME280;34981;49.104;11.396;2024-01-15T06:37:10;96151.16;;;-3.87;100.00
48563;BME280;34981;49.104;11.396;2024-01-15T06:39:37;96144.28;;;-3.88;100.00
48563;BME280;34981;49.104;11.396;2024-01-15T06:42:05;96138.66;;;-3.85;100.00
48563;BME280;34981;49.104;11.396;2024-01-15T06:44:32;96135.41;;;-3.87;100.00
48563;BME280;34981;49.104;11.396;2024-01-15T06:46:59;96130.31;;;-3.89;100.00
48563;BME280;34981;49.104;11.396;2024-01-15T06:49:29;96126.50;;;-3.86;100.00
48563;BME280;34981;49.104;11.396;2024-01-15T06:51:56;96118.00;;;-3.88;100.00
48563;BME280;34981;49.104;11.396;2024-01-15T06:54:24;96114.41;;;-3.87;100.00
48563;BME280;34981;49.104;11.396;2024-01-15T06:56:52;96111.41;;;-3.84;100.00
48563;BME280;34981;49.104;11.396;2024-01-15T06:59:19;96111.41;;;-3.84;100.00
48563;BME280;34981;49.104;11.396;2024-01-15T07:01:46;96108.94;;;-3.86;100.00
48563;BME280;34981;49.104;11.396;2024-01-15T07:04:14;96107.78;;;-3.83;100.00
48563;BME280;34981;49.104;11.396;2024-01-15T07:06:41;96103.53;;;-3.84;100.00
48563;BME280;34981;49.104;11.396;2024-01-15T07:09:08;96099.91;;;-3.83;100.00
48563;BME280;34981;49.104;11.396;2024-01-15T07:11:36;96093.50;;;-3.81;100.00
48563;BME280;34981;49.104;11.396;2024-01-15T07:14:03;96087.44;;;-3.81;100.00
48563;BME280;34981;49.104;11.396;2024-01-15T07:16:30;96095.91;;;-3.79;100.00
48563;BME280;34981;49.104;11.396;2024-01-15T07:19:04;96096.94;;;-3.80;100.00
48563;BME280;34981;49.104;11.396;2024-01-15T07:21:32;96092.13;;;-3.77;100.00
48563;BME280;34981;49.104;11.396;2024-01-15T07:23:59;96080.63;;;-3.76;100.00
48563;BME280;34981;49.104;11.396;2024-01-15T07:26:26;96079.09;;;-3.70;100.00
48563;BME280;34981;49.104;11.396;2024-01-15T07:28:53;96082.38;;;-3.68;100.00
48563;BME280;34981;49.104;11.396;2024-01-15T07:31:20;96071.06;;;-3.69;100.00
48563;BME280;34981;49.104;11.396;2024-01-15T07:33:48;96074.13;;;-3.65;100.00
48563;BME280;34981;49.104;11.396;2024-01-15T07:36:15;96082.38;;;-3.68;100.00
48563;BME280;34981;49.104;11.396;2024-01-15T07:38:43;96077.13;;;-3.68;100.00
48563;BME280;34981;49.104;11.396;2024-01-15T07:41:10;96072.69;;;-3.68;100.00
48563;BME280;34981;49.104;11.396;2024-01-15T07:43:37;96063.34;;;-3.70;100.00
48563;BME280;34981;49.104;11.396;2024-01-15T07:46:04;96072.69;;;-3.68;100.00
48563;BME280;34981;49.104;11.396;2024-01-15T07:48:32;96059.38;;;-3.66;100.00
48563;BME280;34981;49.104;11.396;2024-01-15T07:50:59;96061.19;;;-3.67;100.00
48563;BME280;34981;49.104;11.396;2024-01-15T07:53:26;96049.50;;;-3.64;100.00
48563;BME280;34981;49.104;11.396;2024-01-15T07:55:54;96055.03;;;-3.59;100.00
48563;BME280;34981;49.104;11.396;2024-01-15T07:58:21;96058.28;;;-3.57;100.00
48563;BME280;34981;49.104;11.396;2024-01-15T08:00:49;96058.28;;;-3.57;100.00
48563;BME280;34981;49.104;11.396;2024-01-15T08:03:16;96063.19;;;-3.54;100.00
48563;BME280;34981;49.104;11.396;2024-01-15T08:05:43;96067.28;;;-3.51;100.00
48563;BME280;34981;49.104;11.396;2024-01-15T08:08:10;96073.16;;;-3.49;100.00
48563;BME280;34981;49.104;11.396;2024-01-15T08:10:38;96060.66;;;-3.47;100.00
48563;BME280;34981;49.104;11.396;2024-01-15T08:13:05;96053.59;;;-3.47;100.00
48563;BME280;34981;49.104;11.396;2024-01-15T08:15:34;96061.31;;;-3.45;100.00
48563;BME280;34981;49.104;11.396;2024-01-15T08:18:02;96057.84;;;-3.46;100.00
48563;BME280;34981;49.104;11.396;2024-01-15T08:20:29;96054.06;;;-3.43;100.00
48563;BME280;34981;49.104;11.396;2024-01-15T08:22:57;96049.91;;;-3.38;100.00
48563;BME280;34981;49.104;11.396;2024-01-15T08:25:25;96048.69;;;-3.35;100.00
48563;BME280;34981;49.104;11.396;2024-01-15T08:27:53;96057.06;;;-3.32;100.00
48563;BME280;34981;49.104;11.396;2024-01-15T08:30:20;96054.03;;;-3.29;100.00
48563;BME280;34981;49.104;11.396;2024-01-15T08:32:48;96037.91;;;-3.26;100.00
48563;BME280;34981;49.104;11.396;2024-01-15T08:35:15;96040.81;;;-3.21;100.00
48563;BME280;34981;49.104;11.396;2024-01-15T08:37:43;96047.34;;;-3.17;100.00
48563;BME280;34981;49.104;11.396;2024-01-15T08:40:10;96048.78;;;-3.14;100.00
48563;BME280;34981;49.104;11.396;2024-01-15T08:42:37;96046.16;;;-3.14;100.00
48563;BME280;34981;49.104;11.396;2024-01-15T08:45:04;96048.78;;;-3.14;100.00
48563;BME280;34981;49.104;11.396;2024-01-15T08:47:33;96039.09;;;-3.14;100.00
48563;BME280;34981;49.104;11.396;2024-01-15T08:50:00;96034.47;;;-3.11;100.00
48563;BME280;34981;49.104;11.396;2024-01-15T08:52:29;96037.47;;;-3.15;100.00
48563;BME280;34981;49.104;11.396;2024-01-15T08:54:56;96045.16;;;-3.13;100.00
48563;BME280;34981;49.104;11.396;2024-01-15T08:57:23;96041.53;;;-3.12;100.00
48563;BME280;34981;49.104;11.396;2024-01-15T08:59:50;96040.38;;;-3.09;100.00
48563;BME280;34981;49.104;11.396;2024-01-15T09:02:20;96043.63;;;-3.07;100.00
48563;BME280;34981;49.104;11.396;2024-01-15T09:04:47;96054.16;;;-3.07;100.00
48563;BME280;34981;49.104;11.396;2024-01-15T09:07:15;96050.72;;;-3.08;100.00
48563;BME280;34981;49.104;11.396;2024-01-15T09:09:42;96046.44;;;-3.09;100.00
48563;BME280;34981;49.104;11.396;2024-01-15T09:12:09;96052.13;;;-3.05;100.00
48563;BME280;34981;49.104;11.396;2024-01-15T09:14:36;96052.13;;;-3.05;100.00
48563;BME280;34981;49.104;11.396;2024-01-15T09:17:04;96048.50;;;-3.04;100.00
48563;BME280;34981;49.104;11.396;2024-01-15T09:19:31;96053.84;;;-2.98;100.00
48563;BME280;34981;49.104;11.396;2024-01-15T09:21:59;96051.03;;;-2.96;100.00
48563;BME280;34981;49.104;11.396;2024-01-15T09:24:27;96049.78;;;-3.00;100.00
48563;BME280;34981;49.104;11.396;2024-01-15T09:26:55;96049.78;;;-3.00;100.00
48563;BME280;34981;49.104;11.396;2024-01-15T09:29:23;96056.31;;;-2.96;100.00
48563;BME280;34981;49.104;11.396;2024-01-15T09:31:51;96045.97;;;-2.98;100.00
48563;BME280;34981;49.104;11.396;2024-01-15T09:34:19;96051.03;;;-2.96;100.00
48563;BME280;34981;49.104;11.396;2024-01-15T09:36:46;96057.38;;;-2.91;100.00
48563;BME280;34981;49.104;11.396;2024-01-15T09:39:14;96057.03;;;-2.88;100.00
48563;BME280;34981;49.104;11.396;2024-01-15T09:41:42;96060.09;;;-2.84;100.00
48563;BME280;34981;49.104;11.396;2024-01-15T09:44:10;96060.91;;;-2.84;100.00
48563;BME280;34981;49.104;11.396;2024-01-15T09:46:37;96048.41;;;-2.82;100.00
48563;BME280;34981;49.104;11.396;2024-01-15T09:49:05;96044.13;;;-2.83;100.00
48563;BME280;34981;49.104;11.396;2024-01-15T09:51:32;96047.59;;;-2.82;100.00
48563;BME280;34981;49.104;11.396;2024-01-15T09:54:00;96034.06;;;-2.79;100.00
48563;BME280;34981;49.104;11.396;2024-01-15T09:56:27;96034.50;;;-2.76;100.00
48563;BME280;34981;49.104;11.396;2024-01-15T09:58:54;96031.88;;;-2.76;100.00
48563;BME280;34981;49.104;11.396;2024-01-15T10:01:24;96028.25;;;-2.75;100.00
48563;BME280;34981;49.104;11.396;2024-01-15T10:03:51;96047.28;;;-2.72;100.00
48563;BME280;34981;49.104;11.396;2024-01-15T10:06:21;96042.47;;;-2.69;100.00
48563;BME280;34981;49.104;11.396;2024-01-15T10:08:50;96035.56;;;-2.70;100.00
48563;BME280;34981;49.104;11.396;2024-01-15T10:11:17;96030.31;;;-2.70;100.00
48563;BME280;34981;49.104;11.396;2024-01-15T10:13:44;96017.78;;;-2.68;100.00
48563;BME280;34981;49.104;11.396;2024-01-15T10:16:13;96008.91;;;-2.67;100.00
48563;BME280;34981;49.104;11.396;2024-01-15T10:18:40;96004.28;;;-2.65;100.00
48563;BME280;34981;49.104;11.396;2024-01-15T10:21:08;96006.91;;;-2.65;100.00
48563;BME280;34981;49.104;11.396;2024-01-15T10:23:35;95991.13;;;-2.65;100.00
48563;BME280;34981;49.104;11.396;2024-01-15T10:26:03;95996.38;;;-2.65;100.00
48563;BME280;34981;49.104;11.396;2024-01-15T10:28:30;95996.81;;;-2.61;100.00
48563;BME280;34981;49.104;11.396;2024-01-15T10:30:59;95994.00;;;-2.60;100.00
48563;BME280;34981;49.104;11.396;2024-01-15T10:33:27;95999.91;;;-2.58;100.00
48563;BME280;34981;49.104;11.396;2024-01-15T10:35:57;95975.81;;;-2.55;100.00
48563;BME280;34981;49.104;11.396;2024-01-15T10:38:26;95971.00;;;-2.51;100.00
48563;BME280;34981;49.104;11.396;2024-01-15T10:40:54;95971.38;;;-2.54;100.00
48563;BME280;34981;49.104;11.396;2024-01-15T10:43:21;95957.84;;;-2.51;100.00
48563;BME280;34981;49.104;11.396;2024-01-15T10:45:52;95950.78;;;-2.51;100.00
48563;BME280;34981;49.104;11.396;2024-01-15T10:48:19;95954.63;;;-2.47;100.00
48563;BME280;34981;49.104;11.396;2024-01-15T10:50:47;95953.28;;;-2.43;100.00
48563;BME280;34981;49.104;11.396;2024-01-15T10:53:15;95944.75;;;-2.45;100.00
48563;BME280;34981;49.104;11.396;2024-01-15T10:55:42;95941.75;;;-2.42;100.00
48563;BME280;34981;49.104;11.396;2024-01-15T10:58:10;95947.25;;;-2.37;100.00
48563;BME280;34981;49.104;11.396;2024-01-15T11:00:37;95950.88;;;-2.38;100.00
48563;BME280;34981;49.104;11.396;2024-01-15T11:03:05;95932.69;;;-2.32;100.00
48563;BME280;34981;49.104;11.396;2024-01-15T11:05:33;95938.78;;;-2.32;100.00
48563;BME280;34981;49.104;11.396;2024-01-15T11:08:01;95933.09;;;-2.36;100.00
48563;BME280;34981;49.104;11.396;2024-01-15T11:10:50;95937.16;;;-2.33;100.00
48563;BME280;34981;49.104;11.396;2024-01-15T11:13:19;95925.19;;;-2.36;100.00
48563;BME280;34981;49.104;11.396;2024-01-15T11:18:28;95916.44;;;-2.43;100.00
48563;BME280;34981;49.104;11.396;2024-01-15T11:23:45;95902.69;;;-2.38;100.00
48563;BME280;34981;49.104;11.396;2024-01-15T11:27:06;95905.50;;;-2.40;100.00
48563;BME280;34981;49.104;11.396;2024-01-15T11:29:08;95900.88;;;-2.38;100.00
48563;BME280;34981;49.104;11.396;2024-01-15T11:34:07;95904.28;;;-2.44;100.00
48563;BME280;34981;49.104;11.396;2024-01-15T11:41:56;95885.66;;;-2.42;100.00
48563;BME280;34981;49.104;11.396;2024-01-15T11:44:24;95884.03;;;-2.43;100.00
48563;BME280;34981;49.104;11.396;2024-01-15T11:46:58;95874.69;;;-2.46;100.00
48563;BME280;34981;49.104;11.396;2024-01-15T11:49:31;95879.53;;;-2.49;100.00
48563;BME280;34981;49.104;11.396;2024-01-15T11:52:06;95876.69;;;-2.48;100.00
48563;BME280;34981;49.104;11.396;2024-01-15T11:54:34;95866.75;;;-2.52;100.00
48563;BME280;34981;49.104;11.396;2024-01-15T11:57:07;95852.75;;;-2.53;100.00
48563;BME280;34981;49.104;11.396;2024-01-15T11:59:36;95856.03;;;-2.51;100.00
48563;BME280;34981;49.104;11.396;2024-01-15T12:02:03;95842.25;;;-2.53;100.00
48563;BME280;34981;49.104;11.396;2024-01-15T12:04:31;95844.06;;;-2.53;100.00
48563;BME280;34981;49.104;11.396;2024-01-15T12:06:58;95843.88;;;-2.52;100.00
48563;BME280;34981;49.104;11.396;2024-01-15T12:09:25;95844.88;;;-2.53;100.00
48563;BME280;34981;49.104;11.396;2024-01-15T12:11:57;95843.06;;;-2.52;100.00
48563;BME280;34981;49.104;11.396;2024-01-15T12:14:27;95836.34;;;-2.55;100.00
48563;BME280;34981;49.104;11.396;2024-01-15T12:16:56;95830.47;;;-2.57;100.00
48563;BME280;34981;49.104;11.396;2024-01-15T12:19:23;95823.41;;;-2.56;100.00
48563;BME280;34981;49.104;11.396;2024-01-15T12:21:51;95825.00;;;-2.55;100.00
48563;BME280;34981;49.104;11.396;2024-01-15T12:24:18;95819.56;;;-2.54;100.00
48563;BME280;34981;49.104;11.396;2024-01-15T12:26:45;95826.44;;;-2.53;100.00
48563;BME280;34981;49.104;11.396;2024-01-15T12:29:12;95816.09;;;-2.54;100.00
48563;BME280;34981;49.104;11.396;2024-01-15T12:31:39;95823.19;;;-2.55;100.00
48563;BME280;34981;49.104;11.396;2024-01-15T12:34:07;95817.56;;;-2.52;100.00
48563;BME280;34981;49.104;11.396;2024-01-15T12:36:34;95813.09;;;-2.51;100.00
48563;BME280;34981;49.104;11.396;2024-01-15T12:39:01;95815.94;;;-2.53;100.00
48563;BME280;34981;49.104;11.396;2024-01-15T12:41:29;95812.28;;;-2.52;100.00
48563;BME280;34981;49.104;11.396;2024-01-15T12:43:56;95809.66;;;-2.52;100.00
48563;BME280;34981;49.104;11.396;2024-01-15T12:46:23;95806.66;;;-2.49;100.00
48563;BME280;34981;49.104;11.396;2024-01-15T12:48:50;95803.78;;;-2.54;100.00
48563;BME280;34981;49.104;11.396;2024-01-15T12:51:17;95805.84;;;-2.49;100.00
48563;BME280;34981;49.104;11.396;2024-01-15T12:53:45;95804.03;;;-2.49;100.00
48563;BME280;34981;49.104;11.396;2024-01-15T12:56:12;95806.66;;;-2.49;100.00
48563;BME280;34981;49.104;11.396;2024-01-15T12:58:39;95804.63;;;-2.47;100.00